Central Point, Oregon
Current Conditions -  °F | °C
As of 12:53 AM on Sunday 23 Nov 2014 (Local Time) from KMFR Reporting Station
Overcast Overcast  
Wind Chill: 40°   Ceiling: 1200
Heat Index: 40°   Visibility: 10mi
Dew Point: 39°   Wind: 0mph
Humidity: 97%   Direction: NA
Pressure: 30.35"   Gusts: NA
Location:  42.38°N, 122.91°W
Report Text: KMFR 230853Z AUTO 00000KT 10SM OVC012 04/04 A3035 RMK AO2 SLP283 T00440039 51014
Loading
Personal Weather Stations






























Interactive Weather Map New forecast layout! Learn more

10-Day Weather Forecast

Advertisements
Track Severe Weather on mobile